Time;durP1;ratioP1;P1;durP2;ratioP2;P2;SDS_P1;SDS_P2;PMS_P1;PMS_P2;Temp;Humidity;BMP_temperature;BMP_pressure;BME280_temperature;BME280_humidity;BME280_pressure;Samples;Min_cycle;Max_cycle;Signal;HPM_P1;HPM_P2
2021/07/24 00:00:52;;;;;;;9.20;7.93;;;21.70;99.90;;;;;;5094170;28;20688;-73
2021/07/24 00:03:21;;;;;;;10.90;8.83;;;21.60;99.90;;;;;;5095374;28;20914;-73
2021/07/24 00:05:47;;;;;;;10.00;8.93;;;21.60;99.90;;;;;;5096080;28;20451;-72
2021/07/24 00:08:14;;;;;;;10.93;9.50;;;21.60;99.90;;;;;;5095395;28;20565;-72
2021/07/24 00:10:41;;;;;;;10.57;9.27;;;21.60;99.90;;;;;;5095362;28;20534;-72
2021/07/24 00:13:08;;;;;;;12.53;10.33;;;21.60;99.90;;;;;;5096233;28;20443;-72
2021/07/24 00:15:35;;;;;;;12.67;10.47;;;21.60;99.90;;;;;;5095652;28;20446;-72
2021/07/24 00:18:02;;;;;;;13.80;11.37;;;21.60;99.90;;;;;;5095564;28;20440;-72
2021/07/24 00:20:30;;;;;;;14.37;11.50;;;21.60;99.90;;;;;;5095176;28;20555;-71
2021/07/24 00:22:57;;;;;;;15.37;10.63;;;21.60;99.90;;;;;;5095481;28;20443;-72
2021/07/24 00:25:23;;;;;;;12.23;10.40;;;21.60;99.90;;;;;;5095563;28;20534;-72
2021/07/24 00:27:50;;;;;;;13.60;10.90;;;21.60;99.90;;;;;;5095518;28;20487;-72
2021/07/24 00:30:17;;;;;;;14.90;11.47;;;21.60;99.90;;;;;;5094852;28;20455;-71
2021/07/24 00:32:44;;;;;;;15.37;11.00;;;21.60;99.90;;;;;;5095326;28;20561;-72
2021/07/24 00:35:11;;;;;;;14.00;10.90;;;21.60;99.90;;;;;;5095244;28;20534;-72
2021/07/24 00:37:39;;;;;;;12.63;10.47;;;21.60;99.90;;;;;;5095413;28;20466;-72
2021/07/24 00:40:08;;;;;;;13.13;10.70;;;21.60;99.90;;;;;;5094866;28;20479;-71
2021/07/24 00:42:36;;;;;;;12.67;10.13;;;21.60;99.90;;;;;;5095624;28;20466;-72
2021/07/24 00:45:04;;;;;;;16.20;11.37;;;21.50;99.90;;;;;;5094727;28;20443;-72
2021/07/24 00:47:38;;;;;;;12.80;10.10;;;21.50;99.90;;;;;;5094836;28;20474;-72
2021/07/24 00:50:09;;;;;;;13.23;10.93;;;21.50;99.90;;;;;;5094944;28;20782;-71
2021/07/24 00:52:39;;;;;;;16.20;10.80;;;21.40;99.90;;;;;;5095502;28;20557;-72
2021/07/24 00:55:09;;;;;;;13.60;10.53;;;21.40;99.90;;;;;;5095156;28;20443;-71
2021/07/24 00:57:36;;;;;;;14.40;11.03;;;21.10;99.90;;;;;;5094778;28;20527;-71
2021/07/24 01:00:04;;;;;;;12.00;10.20;;;21.10;99.90;;;;;;5094661;28;20447;-71
2021/07/24 01:02:31;;;;;;;14.50;11.50;;;21.10;99.90;;;;;;5094738;28;20478;-72
2021/07/24 01:04:58;;;;;;;13.70;10.80;;;21.10;99.90;;;;;;5094960;28;20443;-72
2021/07/24 01:07:25;;;;;;;12.20;9.97;;;21.10;99.90;;;;;;5094831;28;20477;-71
2021/07/24 01:09:52;;;;;;;12.50;10.00;;;21.20;99.90;;;;;;5094817;28;20525;-72
2021/07/24 01:12:20;;;;;;;11.57;9.50;;;21.20;99.90;;;;;;5094605;28;20467;-72
2021/07/24 01:14:47;;;;;;;10.50;8.80;;;21.30;99.90;;;;;;5094598;28;20442;-71
2021/07/24 01:17:14;;;;;;;13.53;9.60;;;21.20;99.90;;;;;;5094531;28;20446;-71
2021/07/24 01:19:41;;;;;;;9.57;8.57;;;21.20;99.90;;;;;;5094684;28;20531;-71
2021/07/24 01:22:09;;;;;;;11.67;9.10;;;21.00;99.90;;;;;;5093927;28;20897;-72
2021/07/24 01:24:36;;;;;;;11.13;8.93;;;20.80;99.90;;;;;;5094285;28;20446;-71
2021/07/24 01:27:07;;;;;;;12.37;10.30;;;20.90;99.90;;;;;;5094285;28;20479;-71
2021/07/24 01:29:36;;;;;;;13.30;9.53;;;20.90;99.90;;;;;;5094269;28;20467;-71
2021/07/24 01:32:03;;;;;;;11.70;9.90;;;20.90;99.90;;;;;;5094090;28;20976;-71
2021/07/24 01:34:30;;;;;;;13.23;11.03;;;20.90;99.90;;;;;;5094461;28;20946;-72
2021/07/24 01:36:57;;;;;;;12.30;11.00;;;21.00;99.90;;;;;;5094554;28;20446;-71
2021/07/24 01:39:26;;;;;;;13.00;10.10;;;21.00;99.90;;;;;;5093773;28;20990;-71
2021/07/24 01:41:55;;;;;;;12.10;9.63;;;21.00;99.90;;;;;;5094111;28;20481;-71
2021/07/24 01:44:22;;;;;;;10.73;9.10;;;21.00;99.90;;;;;;5094239;28;20850;-71
2021/07/24 01:46:49;;;;;;;13.60;10.30;;;21.00;99.90;;;;;;5094090;28;20443;-71
2021/07/24 01:52:46;;;;;;;10.83;9.03;;;20.90;99.90;;;;;;5094243;28;20449;-71
2021/07/24 01:55:05;;;;;;;13.67;9.87;;;20.80;99.90;;;;;;5094133;28;20873;-71
2021/07/24 01:57:35;;;;;;;13.87;10.23;;;20.80;99.90;;;;;;5094207;28;20442;-71
2021/07/24 02:00:10;;;;;;;12.80;10.77;;;20.80;99.90;;;;;;5093591;28;20447;-71
2021/07/24 02:02:37;;;;;;;11.73;9.80;;;20.90;99.90;;;;;;5094025;28;20471;-71
2021/07/24 02:05:05;;;;;;;14.10;11.27;;;20.80;99.90;;;;;;5093785;28;20446;-71
2021/07/24 02:07:36;;;;;;;12.10;10.13;;;20.80;99.90;;;;;;5093812;28;20478;-71
2021/07/24 02:10:06;;;;;;;12.13;10.57;;;20.80;99.90;;;;;;5093730;28;20442;-71
2021/07/24 02:12:34;;;;;;;13.67;11.40;;;20.70;99.90;;;;;;5093724;28;20466;-71
2021/07/24 02:15:01;;;;;;;13.63;10.40;;;20.70;99.90;;;;;;5093522;28;20922;-72
2021/07/24 02:17:31;;;;;;;12.23;9.83;;;20.80;99.90;;;;;;5093801;28;20445;-72
2021/07/24 02:19:59;;;;;;;12.80;11.23;;;20.80;99.90;;;;;;5093836;28;20441;-71
2021/07/24 02:22:26;;;;;;;15.03;11.10;;;20.70;99.90;;;;;;5094166;28;20813;-71
2021/07/24 02:24:53;;;;;;;14.50;10.43;;;20.70;99.90;;;;;;5093853;28;20443;-71
2021/07/24 02:27:21;;;;;;;12.60;9.97;;;20.70;99.90;;;;;;5093286;28;20959;-71
2021/07/24 02:29:48;;;;;;;14.17;9.03;;;20.80;99.90;;;;;;5093311;28;20548;-71
2021/07/24 02:32:17;;;;;;;10.80;9.00;;;20.70;99.90;;;;;;5093704;28;20553;-71
2021/07/24 02:34:44;;;;;;;11.77;9.30;;;20.70;99.90;;;;;;5093798;28;20789;-71
2021/07/24 02:37:11;;;;;;;11.00;9.90;;;20.60;99.90;;;;;;5093810;28;20443;-71
2021/07/24 02:39:37;;;;;;;11.83;9.70;;;20.70;99.90;;;;;;5093471;28;20447;-71
2021/07/24 02:42:07;;;;;;;11.63;9.30;;;20.70;99.90;;;;;;5093398;28;20549;-71
2021/07/24 02:44:35;;;;;;;13.03;9.90;;;20.80;99.90;;;;;;5093603;28;20482;-72
2021/07/24 02:47:02;;;;;;;12.07;9.63;;;20.90;99.90;;;;;;5093612;28;20454;-72
2021/07/24 02:49:29;;;;;;;14.47;10.53;;;20.90;99.90;;;;;;5093742;28;20469;-72
2021/07/24 02:51:56;;;;;;;12.77;9.87;;;20.80;99.90;;;;;;5092859;28;20831;-71
2021/07/24 02:54:22;;;;;;;12.57;10.37;;;20.80;99.90;;;;;;5093346;28;20444;-72
2021/07/24 02:56:49;;;;;;;12.10;9.60;;;20.80;99.90;;;;;;5093443;28;20525;-72
2021/07/24 02:59:17;;;;;;;10.53;8.83;;;20.90;99.90;;;;;;5093463;28;20443;-71
2021/07/24 03:01:45;;;;;;;13.43;9.87;;;20.90;99.90;;;;;;5093089;28;20463;-71
2021/07/24 03:04:12;;;;;;;13.77;9.90;;;20.90;99.90;;;;;;5097341;28;20537;-72
2021/07/24 03:06:39;;;;;;;12.53;9.50;;;20.90;99.90;;;;;;5096858;28;20442;-72
2021/07/24 03:09:07;;;;;;;13.30;10.47;;;20.90;99.90;;;;;;5096679;28;21033;-72
2021/07/24 03:11:34;;;;;;;14.07;10.30;;;20.80;99.90;;;;;;5096600;28;20527;-72
2021/07/24 03:14:01;;;;;;;13.80;10.60;;;20.80;99.90;;;;;;5096597;28;20446;-71
2021/07/24 03:16:27;;;;;;;15.50;10.93;;;20.70;99.90;;;;;;5097082;28;20767;-72
2021/07/24 03:18:56;;;;;;;14.13;10.60;;;20.60;99.90;;;;;;5097051;28;20452;-72
2021/07/24 03:21:23;;;;;;;13.30;9.57;;;20.70;99.90;;;;;;5096272;28;20477;-71
2021/07/24 03:23:50;;;;;;;12.50;10.40;;;20.70;99.90;;;;;;5096678;28;20453;-71
2021/07/24 03:26:17;;;;;;;12.37;9.97;;;20.60;99.90;;;;;;5096784;28;20470;-71
2021/07/24 03:28:44;;;;;;;15.90;11.17;;;20.60;99.90;;;;;;5096462;28;20829;-72
2021/07/24 03:31:11;;;;;;;11.60;10.07;;;20.70;99.90;;;;;;5096115;28;20463;-71
2021/07/24 03:33:37;;;;;;;13.50;10.53;;;20.70;99.90;;;;;;5097095;28;20454;-71
2021/07/24 03:36:06;;;;;;;12.47;10.73;;;20.70;99.90;;;;;;5096442;28;20785;-71
2021/07/24 03:38:33;;;;;;;15.43;11.50;;;20.60;99.90;;;;;;5096485;28;20442;-71
2021/07/24 03:41:00;;;;;;;12.40;10.70;;;20.70;99.90;;;;;;5095884;28;20548;-71
2021/07/24 03:43:26;;;;;;;12.50;10.53;;;20.60;99.90;;;;;;5096572;28;20436;-71
2021/07/24 03:45:53;;;;;;;16.43;10.93;;;20.50;99.90;;;;;;5096569;28;20437;-71
2021/07/24 03:48:20;;;;;;;12.90;9.87;;;20.50;99.90;;;;;;5095773;28;20479;-71
2021/07/24 03:50:47;;;;;;;15.63;11.63;;;20.50;99.90;;;;;;5095936;28;20469;-71
2021/07/24 03:53:15;;;;;;;11.63;9.73;;;20.50;99.90;;;;;;5096106;28;20457;-71
2021/07/24 03:55:42;;;;;;;12.13;10.40;;;20.30;99.90;;;;;;5095895;28;20442;-71
2021/07/24 03:58:09;;;;;;;12.30;10.03;;;20.40;99.90;;;;;;5096354;28;20543;-71
2021/07/24 04:00:40;;;;;;;14.83;11.80;;;20.50;99.90;;;;;;5095899;28;20534;-71
2021/07/24 04:03:06;;;;;;;12.93;10.00;;;20.40;99.90;;;;;;5095963;28;20846;-71
2021/07/24 04:05:39;;;;;;;13.13;10.63;;;20.40;99.90;;;;;;5095938;28;20473;-71
2021/07/24 04:08:07;;;;;;;11.70;9.93;;;20.40;99.90;;;;;;5095822;28;20991;-71
2021/07/24 04:10:36;;;;;;;12.17;10.03;;;20.40;99.90;;;;;;5095653;28;20477;-71
2021/07/24 04:13:03;;;;;;;21.13;15.90;;;20.50;99.90;;;;;;5096010;28;20558;-71
2021/07/24 04:15:30;;;;;;;14.80;10.97;;;20.50;99.90;;;;;;5094802;28;20450;-71
2021/07/24 04:17:58;;;;;;;14.43;11.80;;;20.40;99.90;;;;;;5095464;28;20998;-71
2021/07/24 04:20:25;;;;;;;13.03;10.93;;;20.40;99.90;;;;;;5095376;28;20456;-71
2021/07/24 04:22:51;;;;;;;15.77;11.27;;;20.40;99.90;;;;;;5095666;28;20455;-71
2021/07/24 04:25:18;;;;;;;13.40;10.83;;;20.40;99.90;;;;;;5095786;28;20844;-71
2021/07/24 04:27:48;;;;;;;11.60;10.27;;;20.50;99.90;;;;;;5095220;28;20530;-72
2021/07/24 04:30:15;;;;;;;13.60;10.33;;;20.50;99.90;;;;;;5094995;28;20515;-71
2021/07/24 04:32:42;;;;;;;14.47;10.10;;;20.30;99.90;;;;;;5095192;28;20975;-71
2021/07/24 04:35:09;;;;;;;14.23;10.63;;;20.40;99.90;;;;;;5095353;28;20535;-71
2021/07/24 04:37:36;;;;;;;13.33;10.50;;;20.30;99.90;;;;;;5095403;28;20445;-71
2021/07/24 04:40:04;;;;;;;14.65;10.95;;;20.20;99.90;;;;;;5095228;28;20449;-71
2021/07/24 04:42:32;;;;;;;15.10;10.83;;;20.10;99.90;;;;;;5094748;28;20230;-71
2021/07/24 04:45:01;;;;;;;13.83;10.70;;;20.20;99.90;;;;;;5095155;28;20538;-71
2021/07/24 04:47:27;;;;;;;14.27;10.47;;;20.40;99.90;;;;;;5095017;28;20924;-71
2021/07/24 04:49:54;;;;;;;12.60;10.37;;;20.40;99.90;;;;;;5094959;28;20487;-71
2021/07/24 04:52:22;;;;;;;14.30;10.47;;;20.40;99.90;;;;;;5095488;28;20469;-71
2021/07/24 04:54:50;;;;;;;13.20;10.17;;;20.50;99.90;;;;;;5095248;28;20443;-71
2021/07/24 04:57:18;;;;;;;12.10;10.30;;;20.60;99.90;;;;;;5094841;28;20833;-71
2021/07/24 04:59:47;;;;;;;12.63;9.90;;;20.60;99.90;;;;;;5094959;28;20791;-71
2021/07/24 05:02:16;;;;;;;13.47;10.70;;;20.60;99.90;;;;;;5094639;28;21018;-71
2021/07/24 05:04:44;;;;;;;11.90;9.93;;;20.50;99.90;;;;;;5094982;28;20446;-71
2021/07/24 05:07:12;;;;;;;12.97;10.70;;;20.30;99.90;;;;;;5094990;28;20448;-71
2021/07/24 05:09:39;;;;;;;15.00;10.30;;;20.20;99.90;;;;;;5094465;28;20481;-71
2021/07/24 05:12:07;;;;;;;12.20;10.00;;;20.20;99.90;;;;;;5094226;28;20544;-71
2021/07/24 05:14:34;;;;;;;11.70;9.60;;;20.20;99.90;;;;;;5094582;28;20443;-71
2021/07/24 05:17:05;;;;;;;12.73;10.23;;;20.40;99.90;;;;;;5094639;28;20448;-71
2021/07/24 05:19:37;;;;;;;12.87;10.37;;;20.50;99.90;;;;;;5094215;28;20448;-71
2021/07/24 05:22:04;;;;;;;11.40;9.80;;;20.60;99.90;;;;;;5093942;28;20467;-71
2021/07/24 05:24:31;;;;;;;12.00;9.70;;;20.70;99.90;;;;;;5094421;28;20439;-71
2021/07/24 05:26:58;;;;;;;12.30;10.40;;;20.80;99.90;;;;;;5093433;28;20816;-71
2021/07/24 05:29:25;;;;;;;15.30;11.17;;;20.90;99.90;;;;;;5093913;28;20489;-72
2021/07/24 05:31:51;;;;;;;11.53;9.70;;;20.90;99.90;;;;;;5094369;28;20562;-71
2021/07/24 05:34:19;;;;;;;11.57;10.07;;;20.90;99.90;;;;;;5094794;28;20447;-71
2021/07/24 05:36:47;;;;;;;12.70;10.60;;;21.00;99.90;;;;;;5094181;28;20442;-71
2021/07/24 05:39:14;;;;;;;12.37;9.93;;;20.90;99.90;;;;;;5094229;28;20796;-71
2021/07/24 05:41:41;;;;;;;12.73;10.83;;;20.90;99.90;;;;;;5093961;28;20466;-71
2021/07/24 05:44:10;;;;;;;14.93;12.07;;;20.90;99.90;;;;;;5094483;28;20801;-72
2021/07/24 05:46:36;;;;;;;14.60;11.30;;;20.80;99.90;;;;;;5094396;28;20446;-72
2021/07/24 05:49:03;;;;;;;13.20;10.17;;;20.80;99.90;;;;;;5094277;28;20561;-71
2021/07/24 05:51:30;;;;;;;13.07;10.63;;;20.80;99.90;;;;;;5093894;28;20470;-71
2021/07/24 05:53:58;;;;;;;15.40;11.37;;;20.80;99.90;;;;;;5093861;28;20520;-72
2021/07/24 05:56:25;;;;;;;14.10;11.87;;;20.90;99.90;;;;;;5093808;28;20443;-71
2021/07/24 05:58:52;;;;;;;16.57;12.70;;;21.10;99.90;;;;;;5094124;28;20444;-72
2021/07/24 06:01:18;;;;;;;13.87;11.30;;;21.30;99.90;;;;;;5093382;28;20474;-71
2021/07/24 06:03:45;;;;;;;11.90;10.00;;;21.40;99.90;;;;;;5093504;28;20446;-72
2021/07/24 06:06:12;;;;;;;15.70;11.97;;;21.60;99.90;;;;;;5094207;28;20451;-71
2021/07/24 06:08:39;;;;;;;12.80;10.37;;;21.70;99.90;;;;;;5093638;28;20969;-72
2021/07/24 06:11:07;;;;;;;13.50;10.70;;;21.80;99.90;;;;;;5093292;28;20578;-71
2021/07/24 06:13:34;;;;;;;13.20;11.40;;;21.90;99.90;;;;;;5093946;28;20443;-71
2021/07/24 06:16:01;;;;;;;16.17;10.60;;;21.90;99.90;;;;;;5094030;28;20443;-72
2021/07/24 06:18:28;;;;;;;13.90;11.43;;;21.90;99.90;;;;;;5093684;28;20442;-71
2021/07/24 06:20:55;;;;;;;13.77;10.63;;;21.80;99.90;;;;;;5093095;28;20471;-71
2021/07/24 06:23:22;;;;;;;13.77;11.40;;;21.70;99.90;;;;;;5093791;28;20786;-72
2021/07/24 06:25:50;;;;;;;15.27;10.93;;;21.60;99.90;;;;;;5093758;28;20929;-72
2021/07/24 06:28:18;;;;;;;13.30;10.73;;;21.60;99.90;;;;;;5093682;28;20906;-71
2021/07/24 06:30:46;;;;;;;11.03;9.33;;;21.60;99.90;;;;;;5093519;28;20451;-71
2021/07/24 06:33:13;;;;;;;11.83;10.20;;;21.60;99.90;;;;;;5093583;28;20442;-72
2021/07/24 06:35:40;;;;;;;12.20;10.27;;;21.80;99.90;;;;;;5093673;28;20444;-72
2021/07/24 06:38:08;;;;;;;12.77;10.80;;;21.80;99.90;;;;;;5096059;28;20508;-72
2021/07/24 06:40:35;;;;;;;13.00;11.10;;;21.80;99.90;;;;;;5097088;28;20448;-71
2021/07/24 06:43:02;;;;;;;13.20;10.57;;;21.70;99.90;;;;;;5097727;28;20467;-71
2021/07/24 06:45:31;;;;;;;11.57;10.13;;;21.80;99.90;;;;;;5097445;28;20444;-72
2021/07/24 06:47:57;;;;;;;12.70;10.20;;;21.90;99.90;;;;;;5097409;28;20449;-72
2021/07/24 06:50:25;;;;;;;13.30;10.80;;;21.90;99.90;;;;;;5097050;28;20487;-71
2021/07/24 06:52:52;;;;;;;15.67;11.93;;;21.90;99.90;;;;;;5097473;28;20447;-72
2021/07/24 06:55:19;;;;;;;14.20;11.43;;;21.80;99.90;;;;;;5097466;28;20930;-72
2021/07/24 06:57:45;;;;;;;14.23;11.63;;;21.90;99.90;;;;;;5097501;28;20473;-72
2021/07/24 07:00:13;;;;;;;12.60;10.70;;;22.00;99.90;;;;;;5097010;28;20451;-71
2021/07/24 07:02:41;;;;;;;12.97;10.73;;;22.20;99.90;;;;;;5097297;28;20475;-72
2021/07/24 07:05:09;;;;;;;12.03;10.77;;;22.40;99.90;;;;;;5097082;28;20922;-72
2021/07/24 07:07:36;;;;;;;13.93;11.60;;;22.50;99.90;;;;;;5097175;28;20937;-72
2021/07/24 07:10:03;;;;;;;13.87;10.70;;;22.70;99.90;;;;;;5096615;28;20482;-72
2021/07/24 07:12:29;;;;;;;12.37;10.47;;;22.70;99.90;;;;;;5096821;28;20474;-73
2021/07/24 07:14:58;;;;;;;11.90;10.37;;;22.70;99.90;;;;;;5096986;28;20443;-72
2021/07/24 07:17:25;;;;;;;13.20;10.70;;;22.70;99.90;;;;;;5096772;28;20914;-71
2021/07/24 07:19:53;;;;;;;13.17;10.60;;;22.70;99.90;;;;;;5096830;28;20450;-71
2021/07/24 07:22:20;;;;;;;11.87;10.27;;;22.80;99.90;;;;;;5096306;28;20468;-71
2021/07/24 07:24:46;;;;;;;12.37;11.07;;;22.90;99.90;;;;;;5097044;28;21020;-71
2021/07/24 07:27:13;;;;;;;12.30;10.77;;;22.90;99.90;;;;;;5096581;28;20523;-71
2021/07/24 07:29:40;;;;;;;11.43;10.10;;;23.00;99.90;;;;;;5096380;28;20486;-72
2021/07/24 07:32:07;;;;;;;12.60;10.43;;;23.10;99.90;;;;;;5096773;28;20471;-72
2021/07/24 07:34:34;;;;;;;12.50;10.47;;;23.10;99.90;;;;;;5096735;28;20480;-73
2021/07/24 07:37:02;;;;;;;13.33;11.03;;;23.10;99.90;;;;;;5096884;28;20440;-72
2021/07/24 07:39:29;;;;;;;12.20;10.83;;;23.00;99.90;;;;;;5096794;28;20440;-72
2021/07/24 07:41:56;;;;;;;12.03;9.53;;;23.00;99.90;;;;;;5095985;28;21029;-71
2021/07/24 07:44:24;;;;;;;11.30;10.10;;;23.00;99.90;;;;;;5096358;28;20476;-72
2021/07/24 07:46:51;;;;;;;12.70;10.57;;;23.10;99.90;;;;;;5096547;28;20498;-72
2021/07/24 07:49:18;;;;;;;11.33;9.37;;;23.10;99.90;;;;;;5095292;28;20469;-73
2021/07/24 07:51:45;;;;;;;15.10;10.60;;;23.10;99.90;;;;;;5095587;28;20816;-73
2021/07/24 07:54:13;;;;;;;11.33;10.13;;;23.20;99.90;;;;;;5096053;28;20535;-73
2021/07/24 07:56:39;;;;;;;17.57;13.00;;;23.20;99.90;;;;;;5096022;28;20494;-73
2021/07/24 07:59:06;;;;;;;14.70;12.43;;;23.20;99.90;;;;;;5096180;28;20449;-73
2021/07/24 08:01:34;;;;;;;13.30;10.73;;;23.20;99.90;;;;;;5095832;28;21026;-73
2021/07/24 08:04:01;;;;;;;12.73;10.40;;;23.00;99.90;;;;;;5096518;28;20459;-73
2021/07/24 08:06:28;;;;;;;11.13;9.97;;;22.90;99.90;;;;;;5096227;28;20946;-73
2021/07/24 08:08:55;;;;;;;11.77;10.57;;;22.90;99.90;;;;;;5095668;28;20443;-73
2021/07/24 08:11:23;;;;;;;14.00;10.80;;;22.80;99.90;;;;;;5095478;28;20946;-74
2021/07/24 08:13:50;;;;;;;10.83;9.70;;;22.80;99.90;;;;;;5095659;28;20543;-73
2021/07/24 08:16:17;;;;;;;12.63;10.53;;;22.70;99.90;;;;;;5095674;28;20436;-73
2021/07/24 08:18:45;;;;;;;11.70;10.33;;;22.60;99.90;;;;;;5096021;28;20523;-73
2021/07/24 08:21:11;;;;;;;14.33;10.70;;;22.50;99.90;;;;;;5095398;28;20463;-72
2021/07/24 08:23:38;;;;;;;10.03;8.70;;;22.30;99.90;;;;;;5095644;28;20849;-73
2021/07/24 08:26:06;;;;;;;13.67;10.97;;;22.30;99.90;;;;;;5095491;28;20444;-73
2021/07/24 08:28:34;;;;;;;11.77;9.90;;;22.30;99.90;;;;;;5095321;28;20904;-74
2021/07/24 08:31:01;;;;;;;11.70;10.10;;;22.40;99.90;;;;;;5094921;28;20515;-73
2021/07/24 08:33:28;;;;;;;13.93;10.70;;;22.50;99.90;;;;;;5096041;28;20531;-73
2021/07/24 08:35:55;;;;;;;11.73;10.03;;;22.70;99.90;;;;;;5094959;28;20444;-73
2021/07/24 08:38:22;;;;;;;14.80;11.10;;;22.70;99.90;;;;;;5095320;28;20445;-73
2021/07/24 08:40:49;;;;;;;12.13;9.40;;;22.70;99.90;;;;;;5094854;28;20466;-72
2021/07/24 08:43:16;;;;;;;12.93;10.80;;;22.70;99.90;;;;;;5095278;28;20539;-73
2021/07/24 08:45:44;;;;;;;11.87;10.27;;;22.60;99.90;;;;;;5095402;28;20523;-73
2021/07/24 08:48:12;;;;;;;12.97;9.90;;;22.70;99.90;;;;;;5095413;28;20442;-73
2021/07/24 08:50:41;;;;;;;12.40;10.50;;;22.90;99.90;;;;;;5094642;28;20568;-73
2021/07/24 08:53:09;;;;;;;11.63;10.33;;;23.20;99.90;;;;;;5095256;28;20448;-73
2021/07/24 08:55:39;;;;;;;11.73;9.63;;;23.30;99.90;;;;;;5095078;28;20438;-73
2021/07/24 08:58:10;;;;;;;12.03;9.80;;;23.60;99.90;;;;;;5094873;28;20537;-73
2021/07/24 09:00:37;;;;;;;12.80;9.87;;;24.10;99.90;;;;;;5094536;28;20853;-72
2021/07/24 09:03:05;;;;;;;11.33;9.07;;;24.70;99.90;;;;;;5094944;28;20566;-72
2021/07/24 09:05:35;;;;;;;18.67;13.70;;;25.20;99.90;;;;;;5094871;28;20444;-73
2021/07/24 09:08:04;;;;;;;11.80;9.97;;;25.80;99.90;;;;;;5094877;28;20462;-73
2021/07/24 09:10:31;;;;;;;11.37;9.53;;;26.20;99.90;;;;;;5094615;28;20486;-70
2021/07/24 09:12:58;;;;;;;10.60;9.30;;;26.60;99.90;;;;;;5094956;28;20539;-73
2021/07/24 09:15:25;;;;;;;10.17;8.93;;;27.30;99.90;;;;;;5094664;28;20448;-73
2021/07/24 09:17:51;;;;;;;11.83;10.50;;;28.00;98.80;;;;;;5094553;28;20447;-73
2021/07/24 09:20:23;;;;;;;9.90;8.90;;;28.80;97.30;;;;;;5094133;28;20538;-73
2021/07/24 09:22:50;;;;;;;11.60;9.90;;;29.60;96.50;;;;;;5094532;28;20478;-73
2021/07/24 09:25:18;;;;;;;10.90;9.80;;;30.90;92.60;;;;;;5094691;28;20446;-73
2021/07/24 09:27:46;;;;;;;10.20;9.30;;;31.30;90.30;;;;;;5094747;28;20440;-73
2021/07/24 09:30:32;;;;;;;10.37;9.37;;;31.40;86.50;;;;;;5093646;28;20486;-70
2021/07/24 09:33:04;;;;;;;10.23;9.20;;;31.40;86.60;;;;;;5094689;28;20439;-71
2021/07/24 09:35:42;;;;;;;11.00;9.87;;;32.30;86.40;;;;;;5093994;28;20506;-71
2021/07/24 09:38:15;;;;;;;12.20;10.43;;;32.80;83.90;;;;;;5094582;28;20774;-71
2021/07/24 09:40:43;;;;;;;10.73;9.63;;;33.20;79.70;;;;;;5093971;28;20455;-71
2021/07/24 09:43:36;;;;;;;10.67;9.63;;;33.90;73.20;;;;;;5094436;28;20447;-71
2021/07/24 09:46:14;;;;;;;10.40;9.13;;;33.90;76.60;;;;;;5094353;28;20436;-71
2021/07/24 09:48:42;;;;;;;10.20;9.30;;;34.20;75.20;;;;;;5094325;28;20451;-71
2021/07/24 09:51:11;;;;;;;11.50;10.40;;;34.10;71.30;;;;;;5093739;28;20480;-71
2021/07/24 09:53:39;;;;;;;10.00;8.97;;;34.00;68.40;;;;;;5094083;28;20440;-71
2021/07/24 09:56:06;;;;;;;9.63;8.83;;;34.50;65.80;;;;;;5093996;28;20531;-71
2021/07/24 09:58:34;;;;;;;10.17;9.17;;;34.60;64.00;;;;;;5091399;28;20463;-72
2021/07/24 10:01:05;;;;;;;9.50;8.57;;;34.50;65.10;;;;;;5080443;28;20556;-72
2021/07/24 10:03:32;;;;;;;10.23;8.90;;;34.40;65.20;;;;;;5072596;28;20452;-72
2021/07/24 10:06:01;;;;;;;10.73;9.63;;;34.40;66.20;;;;;;5072510;28;20440;-72
2021/07/24 10:08:32;;;;;;;10.07;9.17;;;34.50;66.60;;;;;;5072396;28;20445;-72
2021/07/24 10:10:58;;;;;;;10.20;9.20;;;34.20;64.30;;;;;;5071868;28;20496;-72
2021/07/24 10:13:26;;;;;;;10.10;9.10;;;33.80;65.00;;;;;;5077977;28;20445;-72
2021/07/24 10:15:53;;;;;;;10.60;9.53;;;33.20;67.30;;;;;;5078915;28;20958;-72
2021/07/24 10:18:20;;;;;;;12.23;10.57;;;32.70;68.90;;;;;;5079111;28;20450;-72
2021/07/24 10:20:49;;;;;;;9.10;8.20;;;32.00;70.60;;;;;;5078448;28;20534;-74
2021/07/24 10:23:19;;;;;;;9.67;8.67;;;31.70;72.70;;;;;;5078685;28;20456;-73
2021/07/24 10:25:54;;;;;;;9.70;8.70;;;31.60;77.10;;;;;;5078696;28;20457;-73
2021/07/24 10:28:25;;;;;;;12.03;9.47;;;31.90;72.80;;;;;;5078901;28;20507;-72
2021/07/24 10:30:55;;;;;;;9.50;8.50;;;31.60;74.00;;;;;;5078703;28;20492;-73
2021/07/24 10:33:23;;;;;;;12.40;11.03;;;31.90;77.10;;;;;;5078923;28;20538;-72
2021/07/24 10:35:50;;;;;;;10.43;9.33;;;32.90;74.00;;;;;;5078764;28;20447;-72
2021/07/24 10:38:31;;;;;;;8.63;7.83;;;33.30;66.90;;;;;;5078734;28;20539;-74
2021/07/24 10:41:31;;;;;;;8.70;7.87;;;33.50;64.20;;;;;;5078315;28;20970;-74
2021/07/24 10:44:00;;;;;;;9.73;8.73;;;33.40;63.20;;;;;;5078466;28;20931;-72
2021/07/24 10:47:10;;;;;;;9.30;8.17;;;33.70;64.40;;;;;;5078599;28;20543;-72
2021/07/24 10:50:00;;;;;;;8.97;8.07;;;33.50;66.60;;;;;;5078794;28;20437;-72
2021/07/24 10:52:49;;;;;;;10.87;9.03;;;32.90;65.40;;;;;;5078584;28;20864;-72
2021/07/24 10:55:15;;;;;;;10.00;9.00;;;32.20;67.00;;;;;;5078152;28;20934;-72
2021/07/24 10:58:05;;;;;;;10.97;9.87;;;32.10;67.50;;;;;;5078751;28;20437;-71
2021/07/24 11:00:35;;;;;;;9.33;8.50;;;31.90;68.90;;;;;;5078468;28;20857;-70
2021/07/24 11:03:02;;;;;;;9.40;8.50;;;31.80;69.10;;;;;;5078327;28;20936;-71
2021/07/24 11:05:30;;;;;;;11.00;9.13;;;31.60;69.30;;;;;;5078375;28;20553;-71
2021/07/24 11:07:58;;;;;;;10.90;9.77;;;31.30;71.50;;;;;;5078334;28;20475;-72
2021/07/24 11:10:25;;;;;;;13.90;11.67;;;31.00;75.40;;;;;;5078376;28;20571;-71
2021/07/24 11:12:52;;;;;;;10.57;9.57;;;30.80;74.70;;;;;;5077911;28;21001;-71
2021/07/24 11:15:20;;;;;;;9.93;8.93;;;30.60;76.10;;;;;;5078630;28;20448;-73
2021/07/24 11:18:24;;;;;;;9.50;8.50;;;30.40;75.40;;;;;;5082652;28;20568;-72
2021/07/24 11:20:52;;;;;;;8.80;7.90;;;30.30;77.30;;;;;;5079322;28;20452;-70
2021/07/24 11:23:20;;;;;;;9.10;7.97;;;30.20;77.70;;;;;;5078155;28;21038;-72
2021/07/24 11:25:47;;;;;;;8.37;7.17;;;30.10;79.90;;;;;;5076630;28;20433;-73
2021/07/24 11:28:22;;;;;;;8.13;7.20;;;29.90;78.90;;;;;;5076310;28;20510;-73
2021/07/24 11:31:03;;;;;;;6.50;5.80;;;29.70;80.00;;;;;;5075991;28;20477;-70
2021/07/24 11:33:32;;;;;;;7.60;6.50;;;29.50;75.50;;;;;;5076272;28;20451;-72
2021/07/24 11:36:03;;;;;;;7.90;6.20;;;29.20;74.90;;;;;;5076435;28;20777;-72
2021/07/24 11:38:31;;;;;;;7.10;5.60;;;28.90;77.10;;;;;;5074819;28;20455;-73
2021/07/24 11:40:59;;;;;;;7.40;5.83;;;28.60;80.60;;;;;;5075915;28;20465;-72
2021/07/24 11:43:26;;;;;;;6.47;5.87;;;28.40;79.10;;;;;;5075968;28;20443;-72
2021/07/24 11:46:03;;;;;;;7.30;5.93;;;28.40;80.10;;;;;;5075917;28;20450;-72
2021/07/24 11:48:31;;;;;;;6.40;5.70;;;28.20;82.10;;;;;;5075931;28;20441;-73
2021/07/24 11:51:03;;;;;;;6.60;6.00;;;28.00;86.50;;;;;;5075382;28;20485;-72
2021/07/24 11:53:31;;;;;;;7.80;6.47;;;27.80;88.00;;;;;;5075774;28;20445;-71
2021/07/24 11:55:59;;;;;;;6.13;5.30;;;27.70;87.80;;;;;;5076246;28;20441;-72
2021/07/24 11:58:26;;;;;;;6.30;5.67;;;27.60;88.90;;;;;;5075560;28;20449;-72
2021/07/24 12:00:55;;;;;;;6.00;5.40;;;27.60;90.50;;;;;;5075272;28;20467;-72
2021/07/24 12:03:23;;;;;;;6.40;5.80;;;27.50;88.30;;;;;;5075462;28;20453;-72
2021/07/24 12:05:53;;;;;;;7.60;6.80;;;27.60;91.50;;;;;;5075562;28;20848;-72
2021/07/24 12:08:23;;;;;;;9.80;5.80;;;27.70;89.70;;;;;;5075487;28;20528;-72
2021/07/24 12:10:51;;;;;;;7.10;6.40;;;27.90;87.70;;;;;;5075245;28;20491;-72
2021/07/24 12:13:23;;;;;;;6.70;6.10;;;28.10;84.30;;;;;;5075486;28;20447;-72
2021/07/24 12:16:10;;;;;;;8.77;7.60;;;28.40;87.30;;;;;;5075368;28;20465;-72
2021/07/24 12:18:42;;;;;;;5.97;5.37;;;28.70;85.30;;;;;;5069077;28;20457;-72
2021/07/24 12:21:13;;;;;;;6.60;6.00;;;28.80;83.70;;;;;;5074831;28;20544;-72
2021/07/24 12:23:44;;;;;;;7.40;6.60;;;28.90;85.70;;;;;;5074981;28;20476;-72
2021/07/24 12:26:13;;;;;;;6.80;6.10;;;29.10;83.80;;;;;;5075254;28;20435;-72
2021/07/24 12:28:42;;;;;;;8.37;7.53;;;29.10;81.30;;;;;;5074819;28;20456;-72
2021/07/24 12:31:23;;;;;;;6.40;5.80;;;29.10;82.00;;;;;;5074644;28;20492;-72
2021/07/24 12:33:51;;;;;;;6.50;5.90;;;29.10;78.20;;;;;;5075010;28;20540;-72
2021/07/24 12:36:22;;;;;;;6.67;6.00;;;29.10;83.90;;;;;;5074405;28;20437;-72
2021/07/24 12:38:49;;;;;;;6.90;6.20;;;29.10;81.00;;;;;;5074788;28;20498;-72
2021/07/24 12:41:16;;;;;;;7.23;6.43;;;29.00;79.70;;;;;;5074376;28;20476;-72
2021/07/24 12:44:01;;;;;;;6.77;5.80;;;29.10;80.30;;;;;;5074777;28;20460;-72